createdAt,value
2022-10-05T00:00:09.826Z,2.7
2022-10-05T00:02:40.428Z,2.8
2022-10-05T00:05:21.099Z,3.0
2022-10-05T00:07:51.821Z,3.1
2022-10-05T00:10:22.426Z,3.3
2022-10-05T00:12:53.076Z,3.5
2022-10-05T00:15:23.672Z,3.5
2022-10-05T00:17:54.353Z,3.5
2022-10-05T00:20:34.950Z,3.5
2022-10-05T00:23:05.523Z,3.5
2022-10-05T00:25:36.117Z,3.5
2022-10-05T00:28:06.732Z,3.5
2022-10-05T00:33:17.585Z,3.4
2022-10-05T00:35:48.184Z,3.4
2022-10-05T00:38:18.766Z,3.4
2022-10-05T00:40:49.362Z,3.4
2022-10-05T00:43:19.971Z,3.4
2022-10-05T00:45:50.614Z,3.4
2022-10-05T00:48:31.445Z,3.3
2022-10-05T00:51:02.013Z,3.3
2022-10-05T00:53:32.596Z,3.1
2022-10-05T00:56:03.187Z,3.1
2022-10-05T00:58:33.786Z,3.1
2022-10-05T01:01:04.437Z,3.1
2022-10-05T01:03:45.203Z,3.1
2022-10-05T01:06:15.778Z,3.4
2022-10-05T01:08:46.476Z,3.3
2022-10-05T01:13:47.214Z,3.2
2022-10-05T01:16:17.829Z,3.2
2022-10-05T01:18:58.577Z,3.2
2022-10-05T01:21:29.179Z,3.1
2022-10-05T01:23:59.791Z,3.2
2022-10-05T01:26:30.394Z,3.1
2022-10-05T01:29:00.988Z,3.1
2022-10-05T01:31:41.647Z,3.1
2022-10-05T01:34:12.317Z,3.1
2022-10-05T01:36:43.177Z,3.1
2022-10-05T01:39:13.899Z,3.2
2022-10-05T01:41:44.490Z,3.2
2022-10-05T01:44:15.113Z,3.1
2022-10-05T01:46:55.730Z,3.1
2022-10-05T01:49:26.325Z,3.1
2022-10-05T01:54:27.050Z,3.2
2022-10-05T01:56:57.643Z,3.2
2022-10-05T01:59:28.298Z,3.1
2022-10-05T02:02:08.920Z,3.1
2022-10-05T02:05:00.765Z,3.1
2022-10-05T02:07:11.978Z,3.1
2022-10-05T02:09:42.606Z,3.1
2022-10-05T02:12:13.194Z,3.1
2022-10-05T02:14:43.802Z,3.2
2022-10-05T02:17:24.385Z,3.1
2022-10-05T02:19:54.985Z,3.1
2022-10-05T02:22:25.570Z,3.1
2022-10-05T02:24:56.165Z,3.1
2022-10-05T02:27:26.747Z,3.1
2022-10-05T02:29:57.353Z,3.1
2022-10-05T02:35:10.214Z,3.0
2022-10-05T02:37:40.801Z,3.0
2022-10-05T02:40:11.400Z,3.0
2022-10-05T02:42:41.985Z,2.9
2022-10-05T02:45:22.578Z,2.9
2022-10-05T02:47:53.283Z,2.9
2022-10-05T02:50:23.877Z,2.9
2022-10-05T02:52:54.460Z,2.8
2022-10-05T02:55:25.097Z,2.7
2022-10-05T02:57:55.703Z,2.7
2022-10-05T03:00:36.314Z,2.7
2022-10-05T03:03:06.953Z,2.7
2022-10-05T03:05:37.521Z,2.7
2022-10-05T03:08:08.094Z,2.8
2022-10-05T03:10:38.681Z,2.9
2022-10-05T03:15:59.428Z,2.8
2022-10-05T03:18:30.995Z,3.0
2022-10-05T03:21:01.635Z,3.1
2022-10-05T03:23:32.239Z,3.2
2022-10-05T03:26:02.822Z,3.1
2022-10-05T03:28:33.441Z,3.1
2022-10-05T03:31:14.126Z,3.0
2022-10-05T03:33:44.987Z,3.1
2022-10-05T03:36:15.596Z,3.1
2022-10-05T03:38:46.174Z,3.3
2022-10-05T03:41:16.791Z,3.2
2022-10-05T03:43:47.408Z,3.2
2022-10-05T03:46:28.037Z,3.1
2022-10-05T03:48:59.324Z,3.2
2022-10-05T03:51:29.912Z,3.1
2022-10-05T03:56:30.666Z,2.9
2022-10-05T03:59:11.291Z,2.8
2022-10-05T04:01:43.271Z,2.8
2022-10-05T04:04:14.109Z,2.8
2022-10-05T04:06:44.945Z,2.7
2022-10-05T04:09:15.750Z,2.6
2022-10-05T04:11:46.358Z,2.6
2022-10-05T04:14:26.950Z,2.5
2022-10-05T04:16:57.517Z,2.4
2022-10-05T04:19:28.121Z,2.3
2022-10-05T04:21:58.704Z,2.2
2022-10-05T04:24:29.303Z,2.1
2022-10-05T04:26:59.862Z,2.2
2022-10-05T04:29:40.492Z,2.2
2022-10-05T04:32:11.085Z,2.1
2022-10-05T04:37:11.826Z,2.2
2022-10-05T04:39:42.418Z,2.3
2022-10-05T04:42:13.006Z,2.2
2022-10-05T04:44:57.061Z,2.3
2022-10-05T04:47:19.003Z,2.2
2022-10-05T04:49:49.585Z,2.1
2022-10-05T04:52:20.175Z,2.3
2022-10-05T04:54:50.796Z,2.8
2022-10-05T04:57:21.412Z,3.1
2022-10-05T05:00:02.035Z,3.0
2022-10-05T05:02:42.613Z,2.9
2022-10-05T05:05:13.202Z,3.1
2022-10-05T05:07:43.805Z,2.9
2022-10-05T05:10:14.426Z,2.9
2022-10-05T05:12:55.018Z,2.8
2022-10-05T05:17:55.766Z,2.9
2022-10-05T05:20:26.382Z,2.9
2022-10-05T05:22:57.000Z,2.9
2022-10-05T05:25:27.578Z,2.9
2022-10-05T05:28:08.300Z,2.9
2022-10-05T05:30:39.081Z,2.8
2022-10-05T05:33:09.811Z,2.9
2022-10-05T05:35:40.410Z,2.9
2022-10-05T05:38:11.004Z,3.0
2022-10-05T05:40:41.577Z,3.1
2022-10-05T05:43:22.219Z,3.3
2022-10-05T05:45:52.834Z,3.2
2022-10-05T05:48:23.487Z,3.3
2022-10-05T05:50:54.088Z,3.5
2022-10-05T05:53:24.691Z,3.4
2022-10-05T05:58:35.478Z,3.3
2022-10-05T06:01:06.054Z,3.3
2022-10-05T06:03:35.047Z,3.3
2022-10-05T06:06:05.635Z,3.3
2022-10-05T06:08:36.249Z,3.3
2022-10-05T06:11:06.862Z,3.3
2022-10-05T06:13:47.484Z,3.4
2022-10-05T06:16:18.112Z,3.5
2022-10-05T06:18:48.979Z,3.6
2022-10-05T06:21:19.583Z,3.7
2022-10-05T06:23:50.239Z,3.7
2022-10-05T06:26:30.831Z,3.6
2022-10-05T06:29:01.408Z,3.6
2022-10-05T06:31:32.064Z,3.7
2022-10-05T06:34:08.182Z,3.8
2022-10-05T06:39:08.921Z,4.1
2022-10-05T06:41:49.518Z,4.2
2022-10-05T06:44:20.120Z,4.3
2022-10-05T06:46:50.726Z,4.3
2022-10-05T06:49:21.323Z,4.4
2022-10-05T06:51:51.930Z,4.4
2022-10-05T06:54:22.529Z,4.5
2022-10-05T06:57:03.121Z,4.5
2022-10-05T06:59:33.749Z,4.6
2022-10-05T07:02:04.333Z,4.7
2022-10-05T07:04:37.019Z,4.8
2022-10-05T07:07:07.812Z,4.9
2022-10-05T07:09:38.423Z,5.2
2022-10-05T07:12:19.015Z,5.3
2022-10-05T07:14:49.616Z,5.4
2022-10-05T07:19:50.370Z,5.6
2022-10-05T07:22:20.956Z,5.8
2022-10-05T07:25:04.664Z,5.9
2022-10-05T07:27:35.257Z,6.0
2022-10-05T07:30:01.487Z,6.0
2022-10-05T07:32:32.068Z,6.0
2022-10-05T07:35:02.711Z,6.1
2022-10-05T07:37:33.279Z,6.1
2022-10-05T07:40:13.869Z,6.1
2022-10-05T07:42:49.062Z,6.2
2022-10-05T07:45:22.095Z,6.2
2022-10-05T07:47:42.983Z,6.2
2022-10-05T07:50:23.657Z,6.4
2022-10-05T07:52:54.235Z,6.4
2022-10-05T07:55:34.844Z,6.5
2022-10-05T08:00:35.577Z,6.7
2022-10-05T08:03:06.272Z,6.7
2022-10-05T08:05:36.959Z,6.8
2022-10-05T08:08:07.675Z,6.8
2022-10-05T08:10:40.238Z,6.9
2022-10-05T08:13:10.824Z,7.1
2022-10-05T08:15:51.475Z,7.2
2022-10-05T08:18:12.323Z,7.4
2022-10-05T08:20:52.952Z,7.5
2022-10-05T08:23:33.567Z,7.6
2022-10-05T08:26:04.128Z,7.7
2022-10-05T08:28:34.785Z,7.8
2022-10-05T08:31:05.505Z,7.9
2022-10-05T08:33:36.287Z,8.1
2022-10-05T08:36:06.901Z,8.2
2022-10-05T08:41:17.666Z,8.3
2022-10-05T08:43:48.267Z,8.5
2022-10-05T08:46:18.922Z,8.4
2022-10-05T08:48:49.747Z,8.5
2022-10-05T08:51:20.327Z,8.6
2022-10-05T08:54:01.166Z,8.6
2022-10-05T08:56:31.787Z,8.8
2022-10-05T08:59:02.390Z,8.8
2022-10-05T09:01:33.010Z,8.7
2022-10-05T09:04:03.761Z,8.8
2022-10-05T09:06:44.354Z,8.8
2022-10-05T09:09:14.965Z,8.9
2022-10-05T09:11:45.727Z,9.0
2022-10-05T09:14:16.516Z,9.0
2022-10-05T09:16:47.104Z,9.0
2022-10-05T09:21:57.842Z,9.2
2022-10-05T09:24:28.462Z,9.2
2022-10-05T09:26:59.065Z,9.2
2022-10-05T09:29:29.658Z,9.3
2022-10-05T09:32:00.275Z,9.4
2022-10-05T09:34:26.654Z,9.5
2022-10-05T09:37:07.271Z,9.5
2022-10-05T09:39:37.867Z,9.6
2022-10-05T09:42:11.713Z,9.6
2022-10-05T09:44:42.324Z,9.7
2022-10-05T09:47:12.930Z,9.7
2022-10-05T09:49:53.535Z,9.8
2022-10-05T09:52:24.100Z,9.9
2022-10-05T09:54:54.691Z,10.0
2022-10-05T09:57:25.283Z,9.9
2022-10-05T10:02:28.740Z,10.0
2022-10-05T10:05:09.767Z,10.0
2022-10-05T10:07:40.342Z,10.3
2022-10-05T10:10:10.967Z,10.3
2022-10-05T10:12:41.591Z,10.4
2022-10-05T10:15:12.187Z,10.6
2022-10-05T10:17:42.884Z,10.6
2022-10-05T10:20:23.489Z,10.8
2022-10-05T10:22:54.106Z,11.1
2022-10-05T10:25:24.714Z,11.2
2022-10-05T10:27:55.349Z,11.4
2022-10-05T10:30:27.424Z,11.6
2022-10-05T10:32:58.680Z,11.7
2022-10-05T10:35:39.251Z,11.7
2022-10-05T10:38:04.741Z,11.8
2022-10-05T10:43:05.477Z,12.2
2022-10-05T10:45:36.132Z,12.2
2022-10-05T10:48:06.891Z,12.3
2022-10-05T10:50:47.496Z,12.4
2022-10-05T10:53:28.109Z,12.4
2022-10-05T10:55:58.694Z,12.4
2022-10-05T11:00:50.909Z,12.3
2022-10-05T11:03:31.590Z,12.3
2022-10-05T11:06:12.192Z,12.3
2022-10-05T11:08:42.789Z,12.4
2022-10-05T11:11:13.392Z,12.4
2022-10-05T11:13:43.992Z,12.5
2022-10-05T11:16:15.878Z,12.7
2022-10-05T11:18:49.443Z,12.6
2022-10-05T11:23:50.160Z,12.7
2022-10-05T11:26:20.738Z,12.8
2022-10-05T11:28:51.339Z,12.9
2022-10-05T11:31:21.977Z,13.0
2022-10-05T11:34:02.801Z,13.0
2022-10-05T11:36:33.392Z,13.2
2022-10-05T11:39:03.984Z,13.4
2022-10-05T11:41:34.654Z,13.4
2022-10-05T11:44:06.284Z,13.5
2022-10-05T11:46:37.791Z,13.6
2022-10-05T11:49:18.481Z,13.8
2022-10-05T11:51:49.287Z,13.7
2022-10-05T11:54:19.993Z,13.8
2022-10-05T11:56:52.180Z,13.9
2022-10-05T11:59:25.185Z,13.8
2022-10-05T12:07:06.081Z,14.1
2022-10-05T12:09:36.691Z,14.3
2022-10-05T12:12:07.266Z,14.4
2022-10-05T12:14:37.877Z,14.4
2022-10-05T12:17:18.475Z,14.3
2022-10-05T12:19:49.048Z,14.5
2022-10-05T12:22:19.631Z,14.6
2022-10-05T12:24:50.254Z,14.7
2022-10-05T12:27:20.853Z,14.8
2022-10-05T12:29:51.436Z,14.9
2022-10-05T12:32:32.055Z,15.0
2022-10-05T12:35:02.643Z,15.2
2022-10-05T12:37:33.891Z,15.3
2022-10-05T12:40:04.468Z,15.4
2022-10-05T12:45:05.218Z,15.6
2022-10-05T12:47:48.335Z,15.6
2022-10-05T12:50:20.953Z,15.7
2022-10-05T12:52:51.582Z,15.8
2022-10-05T12:55:22.168Z,15.8
2022-10-05T12:57:52.759Z,15.9
2022-10-05T13:00:23.675Z,16.1
2022-10-05T13:03:04.576Z,16.4
2022-10-05T13:05:35.169Z,16.5
2022-10-05T13:08:09.334Z,16.7
2022-10-05T13:10:39.920Z,16.9
2022-10-05T13:13:02.509Z,17.0
2022-10-05T13:15:43.136Z,17.2
2022-10-05T13:18:13.854Z,17.2
2022-10-05T13:20:44.436Z,17.7
2022-10-05T13:25:45.173Z,17.9
2022-10-05T13:28:15.802Z,18.0
2022-10-05T13:30:56.541Z,18.0
2022-10-05T13:33:37.237Z,18.2
2022-10-05T13:36:07.835Z,18.1
2022-10-05T13:38:38.379Z,18.1
2022-10-05T13:41:08.971Z,18.2
2022-10-05T13:43:39.747Z,18.3
2022-10-05T13:46:20.515Z,18.4
2022-10-05T13:48:51.194Z,18.3
2022-10-05T13:51:21.762Z,18.2
2022-10-05T13:53:52.349Z,18.3
2022-10-05T13:56:22.935Z,18.4
2022-10-05T13:58:53.552Z,18.6
2022-10-05T14:01:34.149Z,18.7
2022-10-05T14:06:35.152Z,18.8
2022-10-05T14:09:05.769Z,18.9
2022-10-05T14:11:36.370Z,19.0
2022-10-05T14:14:06.978Z,19.1
2022-10-05T14:16:47.642Z,19.4
2022-10-05T14:19:18.490Z,19.4
2022-10-05T14:21:49.151Z,19.2
2022-10-05T14:24:25.754Z,19.2
2022-10-05T14:26:44.904Z,19.3
2022-10-05T14:29:25.509Z,19.4
2022-10-05T14:31:56.150Z,19.6
2022-10-05T14:34:26.966Z,19.6
2022-10-05T14:36:57.551Z,19.7
2022-10-05T14:39:28.127Z,19.6
2022-10-05T14:41:58.704Z,19.3
2022-10-05T14:47:19.477Z,19.2
2022-10-05T14:49:50.074Z,19.1
2022-10-05T14:52:20.650Z,18.8
2022-10-05T14:54:51.234Z,18.7
2022-10-05T14:57:21.831Z,18.8
2022-10-05T15:00:02.459Z,18.9
2022-10-05T15:02:33.115Z,18.9
2022-10-05T15:07:33.964Z,18.8
2022-10-05T15:10:04.576Z,18.5
2022-10-05T15:12:35.176Z,18.2
2022-10-05T15:15:15.775Z,18.1
2022-10-05T15:17:46.360Z,17.9
2022-10-05T15:20:16.949Z,17.8
2022-10-05T15:22:47.790Z,17.8
2022-10-05T15:27:48.545Z,17.4
2022-10-05T15:30:29.277Z,17.3
2022-10-05T15:33:00.008Z,17.2
2022-10-05T15:35:30.604Z,17.1
2022-10-05T15:38:01.194Z,16.9
2022-10-05T15:40:31.844Z,16.7
2022-10-05T15:43:12.433Z,16.6
2022-10-05T15:45:43.084Z,16.4
2022-10-05T15:48:14.764Z,16.3
2022-10-05T15:50:45.640Z,16.2
2022-10-05T15:53:16.229Z,16.1
2022-10-05T15:55:46.829Z,16.1
2022-10-05T15:58:27.462Z,16.0
2022-10-05T16:00:58.146Z,15.9
2022-10-05T16:03:29.034Z,15.8
2022-10-05T16:08:29.820Z,15.4
2022-10-05T16:11:00.435Z,15.4
2022-10-05T16:13:41.061Z,15.2
2022-10-05T16:16:11.644Z,15.1
2022-10-05T16:18:42.389Z,15.0
2022-10-05T16:21:13.054Z,14.8
2022-10-05T16:23:43.650Z,14.8
2022-10-05T16:26:14.240Z,14.6
2022-10-05T16:28:54.846Z,14.5
2022-10-05T16:31:25.467Z,14.4
2022-10-05T16:33:56.102Z,14.3
2022-10-05T16:36:26.695Z,14.2
2022-10-05T16:38:57.283Z,14.0
2022-10-05T16:41:27.854Z,14.0
2022-10-05T16:44:08.477Z,13.8
2022-10-05T16:49:09.243Z,13.8
2022-10-05T16:51:39.815Z,13.7
2022-10-05T16:54:10.405Z,13.7
2022-10-05T16:56:41.036Z,13.6
2022-10-05T16:59:21.678Z,13.4
2022-10-05T17:01:52.328Z,13.2
2022-10-05T17:04:22.950Z,13.1
2022-10-05T17:06:53.530Z,13.0
2022-10-05T17:09:24.121Z,13.0
2022-10-05T17:12:04.725Z,13.0
2022-10-05T17:14:35.318Z,13.0
2022-10-05T17:17:15.882Z,12.9
2022-10-05T17:19:46.463Z,12.7
2022-10-05T17:22:17.073Z,12.7
2022-10-05T17:24:47.658Z,12.5
2022-10-05T17:29:58.403Z,12.4
2022-10-05T17:32:28.989Z,12.2
2022-10-05T17:34:59.584Z,12.2
2022-10-05T17:37:30.186Z,12.1
2022-10-05T17:40:00.793Z,12.0
2022-10-05T17:42:35.455Z,11.9
2022-10-05T17:45:06.087Z,11.8
2022-10-05T17:47:36.706Z,11.8
2022-10-05T17:50:08.056Z,11.8
2022-10-05T17:52:38.646Z,11.4
2022-10-05T17:55:12.743Z,11.3
2022-10-05T17:57:53.341Z,11.3
2022-10-05T18:00:23.950Z,10.9
2022-10-05T18:02:54.562Z,10.4
2022-10-05T18:05:25.237Z,10.2
2022-10-05T18:10:40.451Z,9.9
2022-10-05T18:13:11.691Z,9.9
2022-10-05T18:15:42.759Z,9.9
2022-10-05T18:18:13.561Z,9.8
2022-10-05T18:20:44.457Z,9.7
2022-10-05T18:23:15.078Z,9.6
2022-10-05T18:25:55.694Z,9.6
2022-10-05T18:28:26.475Z,9.4
2022-10-05T18:30:57.521Z,9.4
2022-10-05T18:33:28.349Z,9.3
2022-10-05T18:35:58.950Z,9.2
2022-10-05T18:38:29.549Z,9.1
2022-10-05T18:41:10.133Z,9.0
2022-10-05T18:43:40.720Z,9.0
2022-10-05T18:46:11.356Z,9.0
2022-10-05T18:51:12.309Z,9.0
2022-10-05T18:53:42.910Z,8.9
2022-10-05T18:56:23.506Z,9.0
2022-10-05T18:58:56.837Z,8.9
2022-10-05T19:01:17.750Z,8.9
2022-10-05T19:03:48.828Z,8.8
2022-10-05T19:06:19.399Z,8.8
2022-10-05T19:09:00.135Z,8.8
2022-10-05T19:11:30.785Z,8.7
2022-10-05T19:14:01.407Z,8.6
2022-10-05T19:16:41.999Z,8.6
2022-10-05T19:19:12.565Z,8.6
2022-10-05T19:21:39.936Z,8.5
2022-10-05T19:24:20.540Z,8.4
2022-10-05T19:26:51.129Z,8.3
2022-10-05T19:31:51.835Z,8.2
2022-10-05T19:34:22.434Z,8.2
2022-10-05T19:36:53.032Z,8.2
2022-10-05T19:39:33.638Z,8.2
2022-10-05T19:42:04.210Z,8.2
2022-10-05T19:44:34.828Z,8.1
2022-10-05T19:47:05.427Z,8.1
2022-10-05T19:49:36.031Z,8.1
2022-10-05T19:52:06.626Z,8.1
2022-10-05T19:54:47.207Z,8.0
2022-10-05T19:57:17.775Z,8.0
2022-10-05T19:59:48.408Z,8.0
2022-10-05T20:02:18.977Z,8.0
2022-10-05T20:04:52.409Z,8.0
2022-10-05T20:07:22.990Z,7.9
2022-10-05T20:12:33.756Z,8.0
2022-10-05T20:15:04.368Z,8.2
2022-10-05T20:17:34.965Z,8.0
2022-10-05T20:20:05.561Z,8.0
2022-10-05T20:22:46.163Z,8.0
2022-10-05T20:25:16.794Z,7.9
2022-10-05T20:27:47.380Z,7.8
2022-10-05T20:30:18.263Z,7.7
2022-10-05T20:32:48.858Z,7.8
2022-10-05T20:35:19.461Z,7.7
2022-10-05T20:38:00.257Z,7.6
2022-10-05T20:40:30.939Z,7.6
2022-10-05T20:43:01.526Z,7.7
2022-10-05T20:45:32.111Z,7.7
2022-10-05T20:48:02.713Z,7.6
2022-10-05T20:53:13.470Z,7.5
2022-10-05T20:55:44.032Z,7.4
2022-10-05T20:58:14.636Z,7.3
2022-10-05T21:00:45.837Z,7.2
2022-10-05T21:03:16.602Z,7.2
2022-10-05T21:05:47.191Z,7.1
2022-10-05T21:08:28.047Z,7.1
2022-10-05T21:10:58.776Z,7.0
2022-10-05T21:13:29.399Z,7.0
2022-10-05T21:16:00.044Z,6.9
2022-10-05T21:18:31.105Z,6.8
2022-10-05T21:21:02.408Z,6.8
2022-10-05T21:23:43.106Z,6.8
2022-10-05T21:26:13.699Z,6.8
2022-10-05T21:28:44.394Z,6.7
2022-10-05T21:33:50.662Z,6.6
2022-10-05T21:36:31.267Z,6.5
2022-10-05T21:39:01.891Z,6.4
2022-10-05T21:41:32.498Z,6.4
2022-10-05T21:44:03.059Z,6.5
2022-10-05T21:46:33.634Z,6.4
2022-10-05T21:49:04.236Z,6.5
2022-10-05T21:51:39.962Z,6.5
2022-10-05T21:54:10.539Z,6.4
2022-10-05T21:56:41.118Z,6.4
2022-10-05T21:59:11.753Z,6.4
2022-10-05T22:01:52.351Z,6.4
2022-10-05T22:04:22.944Z,6.4
2022-10-05T22:07:03.526Z,6.3
2022-10-05T22:09:34.145Z,6.3
2022-10-05T22:14:34.894Z,6.2
2022-10-05T22:17:05.473Z,6.2
2022-10-05T22:19:36.082Z,6.1
2022-10-05T22:22:16.693Z,6.0
2022-10-05T22:24:47.265Z,6.1
2022-10-05T22:27:17.858Z,6.2
2022-10-05T22:29:48.457Z,6.2
2022-10-05T22:32:19.038Z,6.2
2022-10-05T22:34:49.645Z,6.1
2022-10-05T22:37:32.021Z,6.2
2022-10-05T22:40:02.611Z,6.1
2022-10-05T22:42:33.216Z,6.1
2022-10-05T22:45:03.810Z,6.0
2022-10-05T22:47:34.423Z,6.0
2022-10-05T22:50:15.025Z,5.9
2022-10-05T22:55:15.770Z,6.0
2022-10-05T22:57:46.340Z,6.0
2022-10-05T23:00:16.966Z,6.1
2022-10-05T23:02:49.121Z,6.0
2022-10-05T23:05:29.829Z,6.0
2022-10-05T23:08:00.413Z,6.1
2022-10-05T23:10:31.010Z,6.1
2022-10-05T23:13:01.626Z,6.2
2022-10-05T23:15:32.247Z,6.1
2022-10-05T23:18:02.826Z,6.0
2022-10-05T23:20:43.444Z,6.0
2022-10-05T23:23:14.044Z,5.9
2022-10-05T23:25:44.647Z,5.9
2022-10-05T23:28:15.280Z,5.8
2022-10-05T23:30:46.883Z,5.7
2022-10-05T23:35:57.882Z,5.6
2022-10-05T23:38:28.837Z,5.6
2022-10-05T23:40:59.570Z,5.6
2022-10-05T23:43:30.196Z,5.6
2022-10-05T23:46:00.842Z,5.6
2022-10-05T23:48:41.674Z,5.6
2022-10-05T23:51:12.256Z,5.6
2022-10-05T23:53:42.849Z,5.6
2022-10-05T23:56:13.420Z,5.6
2022-10-05T23:58:44.040Z,5.6
